createdAt,value
2023-02-16T00:00:52.487Z,43.58
2023-02-16T00:03:55.496Z,48.22
2023-02-16T00:06:57.906Z,45.17
2023-02-16T00:09:59.340Z,43.33
2023-02-16T00:13:01.665Z,50.55
2023-02-16T00:16:03.283Z,45.03
2023-02-16T00:19:17.321Z,48.80
2023-02-16T00:22:18.761Z,45.50
2023-02-16T00:25:20.160Z,49.00
2023-02-16T00:28:21.672Z,49.92
2023-02-16T00:31:25.171Z,48.83
2023-02-16T00:37:42.569Z,50.42
2023-02-16T00:40:44.261Z,55.13
2023-02-16T00:43:45.673Z,51.20
2023-02-16T00:46:47.582Z,50.78
2023-02-16T00:49:51.659Z,46.95
2023-02-16T00:52:53.151Z,54.55
2023-02-16T00:55:54.826Z,52.55
2023-02-16T00:58:56.773Z,51.60
2023-02-16T01:01:58.219Z,50.03
2023-02-16T01:04:59.698Z,50.63
2023-02-16T01:08:01.499Z,53.83
2023-02-16T01:11:05.433Z,49.05
2023-02-16T01:14:12.747Z,49.78
2023-02-16T01:17:14.197Z,50.78
2023-02-16T01:20:17.516Z,45.53
2023-02-16T01:23:18.951Z,52.00
2023-02-16T01:26:20.871Z,47.88
2023-02-16T01:29:22.378Z,51.30
2023-02-16T01:32:24.548Z,48.97
2023-02-16T01:35:32.909Z,52.95
2023-02-16T01:38:34.427Z,48.72
2023-02-16T01:41:56.043Z,52.55
2023-02-16T01:45:23.847Z,45.83
2023-02-16T01:48:28.322Z,50.22
2023-02-16T01:51:37.903Z,45.83
2023-02-16T01:55:17.879Z,55.85
2023-02-16T01:58:28.232Z,48.20
2023-02-16T02:01:35.911Z,49.80
2023-02-16T02:04:44.397Z,48.45
2023-02-16T02:07:53.229Z,51.97
2023-02-16T02:11:18.394Z,50.42
2023-02-16T02:14:33.152Z,51.88
2023-02-16T02:17:34.708Z,46.55
2023-02-16T02:20:58.117Z,46.28
2023-02-16T02:24:28.960Z,49.65
2023-02-16T02:27:44.823Z,49.63
2023-02-16T02:31:01.397Z,48.97
2023-02-16T02:34:27.391Z,50.10
2023-02-16T02:37:37.983Z,50.55
2023-02-16T02:41:13.509Z,49.83
2023-02-16T02:44:20.679Z,49.83
2023-02-16T02:47:22.252Z,54.33
2023-02-16T02:50:36.995Z,53.20
2023-02-16T02:53:48.014Z,52.92
2023-02-16T02:56:55.348Z,51.20
2023-02-16T03:00:02.659Z,53.55
2023-02-16T03:03:16.722Z,54.58
2023-02-16T03:09:24.677Z,56.38
2023-02-16T03:12:26.156Z,50.50
2023-02-16T03:15:30.651Z,47.58
2023-02-16T03:18:34.343Z,51.45
2023-02-16T03:21:36.114Z,53.88
2023-02-16T03:24:37.799Z,51.25
2023-02-16T03:27:42.453Z,51.08
2023-02-16T03:30:46.577Z,52.55
2023-02-16T03:33:50.021Z,52.10
2023-02-16T03:36:55.196Z,56.63
2023-02-16T03:39:56.715Z,53.00
2023-02-16T03:43:03.523Z,53.92
2023-02-16T03:46:05.235Z,54.33
2023-02-16T03:49:06.721Z,55.55
2023-02-16T03:52:08.753Z,51.90
2023-02-16T03:55:10.187Z,52.10
2023-02-16T03:58:15.540Z,56.35
2023-02-16T04:01:17.137Z,52.63
2023-02-16T04:04:18.761Z,51.88
2023-02-16T04:07:20.417Z,52.40
2023-02-16T04:10:22.046Z,50.60
2023-02-16T04:13:24.332Z,54.30
2023-02-16T04:16:25.890Z,53.33
2023-02-16T04:19:27.347Z,52.83
2023-02-16T04:22:28.778Z,49.83
2023-02-16T04:25:30.664Z,49.60
2023-02-16T04:28:32.109Z,54.63
2023-02-16T04:31:33.615Z,51.25
2023-02-16T04:34:35.093Z,53.00
2023-02-16T04:37:36.520Z,55.05
2023-02-16T04:40:37.903Z,48.30
2023-02-16T04:43:39.312Z,53.45
2023-02-16T04:46:40.747Z,49.33
2023-02-16T04:49:42.229Z,49.90
2023-02-16T04:52:43.711Z,50.03
2023-02-16T04:55:47.384Z,52.63
2023-02-16T04:58:48.778Z,47.45
2023-02-16T05:01:50.238Z,52.33
2023-02-16T05:04:51.781Z,52.30
2023-02-16T05:07:53.272Z,45.42
2023-02-16T05:10:54.655Z,46.38
2023-02-16T05:13:59.955Z,50.83
2023-02-16T05:17:01.376Z,49.97
2023-02-16T05:20:03.013Z,46.05
2023-02-16T05:23:04.424Z,51.65
2023-02-16T05:26:05.867Z,49.30
2023-02-16T05:29:07.350Z,50.33
2023-02-16T05:32:08.960Z,48.92
2023-02-16T05:35:10.423Z,46.50
2023-02-16T05:38:11.815Z,48.03
2023-02-16T05:41:13.405Z,48.38
2023-02-16T05:44:14.837Z,48.47
2023-02-16T05:47:16.291Z,49.45
2023-02-16T05:50:17.733Z,50.00
2023-02-16T05:53:19.131Z,53.40
2023-02-16T05:56:21.095Z,49.95
2023-02-16T05:59:22.728Z,45.25
2023-02-16T06:02:24.198Z,48.28
2023-02-16T06:05:26.114Z,45.72
2023-02-16T06:08:27.810Z,46.20
2023-02-16T06:11:29.305Z,49.38
2023-02-16T06:14:30.722Z,57.25
2023-02-16T06:17:32.122Z,49.55
2023-02-16T06:20:33.570Z,50.63
2023-02-16T06:23:34.991Z,49.05
2023-02-16T06:26:36.967Z,45.20
2023-02-16T06:29:38.361Z,44.03
2023-02-16T06:32:39.770Z,48.33
2023-02-16T06:35:41.202Z,50.13
2023-02-16T06:38:43.069Z,52.35
2023-02-16T06:41:44.509Z,47.65
2023-02-16T06:44:45.919Z,51.05
2023-02-16T06:47:47.360Z,55.13
2023-02-16T06:50:49.107Z,51.25
2023-02-16T06:53:50.649Z,49.25
2023-02-16T06:56:52.111Z,49.72
2023-02-16T06:59:53.543Z,49.35
2023-02-16T07:02:55.036Z,48.67
2023-02-16T07:05:56.478Z,51.85
2023-02-16T07:08:59.033Z,51.97
2023-02-16T07:12:00.523Z,50.10
2023-02-16T07:15:01.951Z,49.67
2023-02-16T07:18:03.554Z,51.78
2023-02-16T07:21:06.169Z,71.53
2023-02-16T07:24:07.814Z,71.28
2023-02-16T07:27:09.609Z,54.80
2023-02-16T07:30:11.697Z,56.78
2023-02-16T07:33:15.357Z,59.67
2023-02-16T07:36:16.757Z,50.95
2023-02-16T07:39:18.334Z,60.97
2023-02-16T07:42:21.104Z,52.45
2023-02-16T07:45:22.543Z,51.55
2023-02-16T07:48:24.079Z,51.50
2023-02-16T07:51:30.713Z,51.75
2023-02-16T07:54:33.031Z,51.00
2023-02-16T07:57:34.459Z,50.03
2023-02-16T08:00:36.306Z,50.75
2023-02-16T08:03:38.632Z,51.63
2023-02-16T08:06:40.214Z,51.65
2023-02-16T08:09:41.968Z,49.03
2023-02-16T08:12:44.046Z,50.97
2023-02-16T08:15:45.527Z,47.95
2023-02-16T08:18:47.391Z,51.03
2023-02-16T08:21:48.812Z,51.20
2023-02-16T08:24:50.220Z,52.90
2023-02-16T08:27:51.606Z,49.65
2023-02-16T08:30:53.044Z,50.45
2023-02-16T08:33:55.751Z,53.88
2023-02-16T08:36:57.712Z,48.77
2023-02-16T08:39:59.172Z,51.05
2023-02-16T08:43:00.595Z,47.42
2023-02-16T08:46:02.297Z,47.85
2023-02-16T08:49:03.876Z,45.97
2023-02-16T08:52:05.493Z,47.15
2023-02-16T08:55:07.234Z,49.83
2023-02-16T08:58:08.677Z,50.95
2023-02-16T09:01:11.261Z,46.20
2023-02-16T09:04:14.811Z,46.60
2023-02-16T09:07:16.216Z,45.47
2023-02-16T09:10:18.105Z,41.85
2023-02-16T09:13:19.515Z,44.47
2023-02-16T09:16:23.052Z,49.33
2023-02-16T09:19:24.531Z,44.30
2023-02-16T09:22:25.917Z,47.10
2023-02-16T09:25:27.313Z,45.92
2023-02-16T09:28:29.298Z,43.15
2023-02-16T09:31:34.456Z,51.13
2023-02-16T09:34:36.767Z,45.13
2023-02-16T09:37:38.207Z,46.45
2023-02-16T09:40:39.676Z,49.03
2023-02-16T09:44:01.277Z,44.45
2023-02-16T09:47:06.354Z,49.90
2023-02-16T09:50:23.703Z,47.63
2023-02-16T09:53:37.729Z,46.90
2023-02-16T09:56:46.210Z,49.20
2023-02-16T10:00:04.278Z,46.45
2023-02-16T10:03:30.596Z,45.95
2023-02-16T10:06:59.332Z,48.88
2023-02-16T10:10:02.817Z,48.45
2023-02-16T10:16:26.586Z,47.72
2023-02-16T10:19:39.779Z,46.00
2023-02-16T10:22:51.238Z,46.20
2023-02-16T10:26:17.776Z,52.28
2023-02-16T10:29:21.121Z,47.63
2023-02-16T10:32:26.618Z,53.72
2023-02-16T10:35:40.950Z,47.00
2023-02-16T10:38:52.272Z,47.20
2023-02-16T10:42:33.537Z,45.08
2023-02-16T10:45:49.653Z,47.65
2023-02-16T10:48:55.088Z,48.15
2023-02-16T10:51:59.007Z,47.05
2023-02-16T10:55:01.305Z,43.92
2023-02-16T10:58:02.736Z,46.08
2023-02-16T11:01:14.496Z,47.20
2023-02-16T11:04:42.442Z,44.97
2023-02-16T11:07:53.423Z,46.17
2023-02-16T11:10:55.071Z,47.55
2023-02-16T11:14:24.594Z,49.15
2023-02-16T11:17:27.233Z,48.95
2023-02-16T11:20:33.241Z,47.17
2023-02-16T11:23:35.681Z,52.88
2023-02-16T11:26:37.204Z,46.03
2023-02-16T11:29:38.665Z,47.50
2023-02-16T11:32:40.201Z,48.72
2023-02-16T11:35:44.758Z,47.78
2023-02-16T11:38:57.304Z,51.47
2023-02-16T11:42:02.798Z,52.20
2023-02-16T11:45:05.727Z,46.25
2023-02-16T11:48:13.188Z,53.95
2023-02-16T11:51:16.133Z,48.33
2023-02-16T11:54:18.123Z,54.30
2023-02-16T11:57:27.946Z,49.60
2023-02-16T12:00:29.735Z,54.22
2023-02-16T12:03:54.280Z,56.08
2023-02-16T12:07:14.459Z,54.47
2023-02-16T12:10:34.988Z,52.42
2023-02-16T12:13:51.655Z,52.88
2023-02-16T12:17:17.828Z,58.85
2023-02-16T12:20:44.777Z,58.63
2023-02-16T12:23:49.281Z,62.10
2023-02-16T12:27:03.887Z,64.78
2023-02-16T12:30:11.102Z,64.45
2023-02-16T12:33:29.837Z,65.75
2023-02-16T12:36:57.710Z,63.55
2023-02-16T12:40:20.365Z,74.75
2023-02-16T12:44:03.274Z,64.05
2023-02-16T12:47:10.904Z,66.28
2023-02-16T12:50:22.188Z,62.90
2023-02-16T12:53:46.325Z,64.00
2023-02-16T12:56:57.454Z,65.63
2023-02-16T13:00:18.241Z,67.18
2023-02-16T13:03:19.645Z,66.82
2023-02-16T13:06:42.670Z,70.47
2023-02-16T13:09:53.240Z,67.63
2023-02-16T13:13:00.741Z,62.95
2023-02-16T13:16:28.941Z,68.43
2023-02-16T13:19:31.718Z,65.50
2023-02-16T13:22:51.591Z,66.38
2023-02-16T13:26:03.833Z,67.63
2023-02-16T13:29:24.366Z,74.15
2023-02-16T13:33:11.529Z,66.05
2023-02-16T13:36:48.834Z,64.55
2023-02-16T13:40:30.738Z,64.85
2023-02-16T13:43:42.317Z,70.72
2023-02-16T13:46:47.304Z,67.72
2023-02-16T13:49:49.157Z,74.57
2023-02-16T13:52:53.012Z,67.35
2023-02-16T13:56:13.199Z,68.22
2023-02-16T13:59:17.572Z,73.70
2023-02-16T14:02:58.417Z,64.35
2023-02-16T14:06:25.832Z,64.93
2023-02-16T14:09:31.840Z,68.70
2023-02-16T14:12:39.134Z,65.00
2023-02-16T14:15:51.270Z,67.57
2023-02-16T14:19:24.587Z,61.47
2023-02-16T14:22:49.743Z,69.50
2023-02-16T14:26:02.124Z,69.95
2023-02-16T14:29:13.812Z,66.00
2023-02-16T14:32:30.871Z,70.45
2023-02-16T14:35:38.244Z,67.35
2023-02-16T14:38:44.925Z,64.13
2023-02-16T14:41:46.475Z,63.53
2023-02-16T14:45:25.781Z,66.63
2023-02-16T14:48:45.725Z,67.32
2023-02-16T14:52:14.913Z,63.20
2023-02-16T14:55:40.344Z,68.60
2023-02-16T14:58:56.095Z,67.60
2023-02-16T15:01:58.326Z,69.90
2023-02-16T15:05:18.737Z,68.82
2023-02-16T15:08:22.924Z,67.78
2023-02-16T15:11:41.337Z,71.45
2023-02-16T15:14:47.780Z,66.47
2023-02-16T15:17:50.348Z,68.53
2023-02-16T15:20:54.656Z,62.90
2023-02-16T15:23:58.617Z,69.40
2023-02-16T15:27:00.006Z,66.95
2023-02-16T15:30:07.619Z,67.35
2023-02-16T15:33:36.919Z,76.45
2023-02-16T15:36:40.792Z,75.80
2023-02-16T15:39:53.539Z,74.30
2023-02-16T15:43:29.157Z,79.50
2023-02-16T15:46:42.135Z,80.80
2023-02-16T15:49:44.253Z,88.20
2023-02-16T15:52:45.764Z,91.53
2023-02-16T15:55:47.726Z,88.57
2023-02-16T15:58:50.665Z,91.32
2023-02-16T16:01:58.964Z,82.68
2023-02-16T16:05:03.874Z,79.15
2023-02-16T16:08:07.294Z,77.70
2023-02-16T16:14:11.043Z,74.78
2023-02-16T16:17:15.029Z,79.32
2023-02-16T16:20:22.132Z,70.88
2023-02-16T16:23:27.044Z,74.30
2023-02-16T16:26:31.634Z,73.05
2023-02-16T16:29:42.970Z,75.38
2023-02-16T16:32:44.452Z,80.18
2023-02-16T16:35:47.231Z,82.22
2023-02-16T16:38:49.010Z,79.85
2023-02-16T16:41:56.290Z,86.40
2023-02-16T16:44:59.424Z,81.22
2023-02-16T16:48:07.367Z,88.40
2023-02-16T16:51:13.835Z,82.90
2023-02-16T16:54:33.355Z,84.03
2023-02-16T16:57:34.764Z,111.72
2023-02-16T17:00:38.840Z,93.60
2023-02-16T17:03:40.366Z,91.88
2023-02-16T17:06:41.895Z,92.13
2023-02-16T17:09:43.262Z,91.65
2023-02-16T17:12:47.205Z,86.82
2023-02-16T17:16:02.753Z,88.03
2023-02-16T17:19:04.294Z,86.18
2023-02-16T17:22:18.040Z,96.00
2023-02-16T17:25:19.579Z,98.90
2023-02-16T17:28:21.175Z,93.20
2023-02-16T17:31:22.662Z,98.63
2023-02-16T17:34:24.165Z,93.47
2023-02-16T17:37:26.294Z,96.10
2023-02-16T17:40:27.849Z,94.57
2023-02-16T17:43:29.339Z,87.65
2023-02-16T17:46:31.697Z,83.47
2023-02-16T17:49:33.139Z,84.75
2023-02-16T17:52:35.177Z,84.60
2023-02-16T17:55:36.653Z,85.53
2023-02-16T17:58:39.016Z,84.13
2023-02-16T18:01:41.581Z,80.28
2023-02-16T18:04:43.047Z,82.50
2023-02-16T18:07:44.725Z,80.68
2023-02-16T18:10:49.039Z,82.70
2023-02-16T18:13:50.483Z,80.55
2023-02-16T18:16:52.542Z,80.68
2023-02-16T18:19:53.982Z,81.13
2023-02-16T18:22:55.430Z,75.22
2023-02-16T18:25:57.142Z,80.85
2023-02-16T18:28:58.623Z,76.13
2023-02-16T18:32:00.194Z,73.57
2023-02-16T18:35:01.729Z,69.65
2023-02-16T18:38:03.492Z,69.95
2023-02-16T18:41:05.000Z,72.40
2023-02-16T18:44:06.399Z,70.68
2023-02-16T18:47:08.953Z,78.38
2023-02-16T18:50:11.438Z,70.67
2023-02-16T18:53:12.997Z,69.60
2023-02-16T18:56:14.413Z,73.93
2023-02-16T18:59:15.857Z,72.45
2023-02-16T19:02:17.703Z,70.18
2023-02-16T19:05:19.223Z,77.28
2023-02-16T19:08:20.690Z,73.88
2023-02-16T19:11:22.312Z,76.10
2023-02-16T19:14:23.785Z,76.20
2023-02-16T19:17:25.222Z,78.68
2023-02-16T19:20:26.853Z,80.95
2023-02-16T19:23:28.231Z,81.30
2023-02-16T19:26:29.763Z,82.03
2023-02-16T19:29:31.173Z,79.85
2023-02-16T19:32:32.725Z,90.20
2023-02-16T19:35:34.174Z,85.60
2023-02-16T19:38:36.541Z,87.18
2023-02-16T19:41:40.305Z,87.03
2023-02-16T19:44:41.782Z,86.43
2023-02-16T19:47:43.232Z,85.95
2023-02-16T19:50:45.339Z,90.00
2023-02-16T19:53:47.701Z,97.35
2023-02-16T19:56:49.111Z,94.20
2023-02-16T19:59:50.576Z,103.30
2023-02-16T20:02:51.986Z,102.10
2023-02-16T20:05:53.445Z,101.10
2023-02-16T20:08:55.906Z,95.30
2023-02-16T20:11:57.337Z,99.07
2023-02-16T20:14:58.891Z,99.82
2023-02-16T20:18:00.380Z,111.28
2023-02-16T20:21:05.184Z,94.18
2023-02-16T20:24:06.927Z,99.55
2023-02-16T20:27:08.370Z,104.82
2023-02-16T20:30:19.123Z,96.97
2023-02-16T20:33:20.924Z,95.00
2023-02-16T20:36:22.839Z,101.10
2023-02-16T20:39:24.573Z,95.43
2023-02-16T20:42:26.103Z,94.78
2023-02-16T20:45:27.604Z,94.20
2023-02-16T20:48:29.261Z,98.57
2023-02-16T20:51:31.439Z,97.72
2023-02-16T20:54:32.863Z,99.90
2023-02-16T20:57:35.717Z,93.07
2023-02-16T21:00:37.281Z,99.78
2023-02-16T21:03:38.866Z,97.70
2023-02-16T21:06:40.482Z,96.60
2023-02-16T21:09:41.926Z,97.93
2023-02-16T21:12:43.380Z,92.22
2023-02-16T21:15:44.864Z,98.18
2023-02-16T21:18:46.371Z,96.30
2023-02-16T21:21:47.821Z,90.15
2023-02-16T21:24:49.251Z,90.55
2023-02-16T21:27:50.708Z,91.35
2023-02-16T21:30:52.168Z,90.68
2023-02-16T21:33:53.966Z,87.90
2023-02-16T21:36:55.416Z,87.20
2023-02-16T21:39:56.871Z,88.05
2023-02-16T21:42:58.638Z,86.32
2023-02-16T21:46:01.379Z,85.07
2023-02-16T21:49:04.178Z,86.50
2023-02-16T21:52:05.556Z,93.80
2023-02-16T21:55:07.223Z,87.20
2023-02-16T21:58:08.645Z,89.28
2023-02-16T22:01:10.214Z,88.72
2023-02-16T22:04:14.450Z,90.35
2023-02-16T22:07:15.962Z,95.47
2023-02-16T22:10:17.793Z,94.18
2023-02-16T22:13:19.193Z,90.68
2023-02-16T22:16:21.240Z,93.60
2023-02-16T22:19:22.710Z,89.07
2023-02-16T22:22:24.206Z,90.53
2023-02-16T22:25:25.672Z,96.65
2023-02-16T22:28:27.311Z,92.88
2023-02-16T22:31:29.093Z,92.28
2023-02-16T22:34:30.588Z,94.82
2023-02-16T22:37:33.120Z,94.25
2023-02-16T22:40:34.552Z,94.07
2023-02-16T22:43:36.563Z,100.32
2023-02-16T22:46:38.684Z,91.13
2023-02-16T22:49:40.154Z,90.25
2023-02-16T22:52:41.603Z,94.30
2023-02-16T22:55:42.999Z,88.68
2023-02-16T22:58:45.432Z,95.90
2023-02-16T23:01:47.004Z,90.53
2023-02-16T23:04:48.425Z,95.47
2023-02-16T23:07:49.856Z,99.35
2023-02-16T23:10:51.257Z,96.30
2023-02-16T23:13:52.833Z,99.40
2023-02-16T23:16:54.402Z,100.65
2023-02-16T23:19:55.921Z,99.38
2023-02-16T23:22:57.344Z,104.00
2023-02-16T23:25:58.791Z,102.75
2023-02-16T23:29:02.227Z,99.10
2023-02-16T23:35:06.192Z,108.47
2023-02-16T23:38:11.497Z,105.65
2023-02-16T23:41:14.001Z,110.40
2023-02-16T23:44:15.535Z,113.70
2023-02-16T23:47:16.932Z,117.75
2023-02-16T23:50:18.349Z,110.65
2023-02-16T23:53:21.967Z,113.32
2023-02-16T23:56:26.782Z,119.90
2023-02-16T23:59:28.178Z,115.82
